Time;durP1;ratioP1;P1;durP2;ratioP2;P2;SDS_P1;SDS_P2;PMS_P1;PMS_P2;Temp;Humidity;BMP_temperature;BMP_pressure;BME280_temperature;BME280_humidity;BME280_pressure;Samples;Min_cycle;Max_cycle;Signal;HPM_P1;HPM_P2
2022/05/01 00:00:54;;;;;;;12.32;7.65;;;7.80;99.90;;;;;;5051068;28;20127;-68
2022/05/01 00:03:33;;;;;;;10.20;7.47;;;7.80;99.90;;;;;;5034763;28;20044;-68
2022/05/01 00:06:19;;;;;;;12.00;8.40;;;7.90;99.90;;;;;;5034996;28;20496;-68
2022/05/01 00:08:44;;;;;;;10.48;7.85;;;7.80;99.90;;;;;;5051730;28;20037;-68
2022/05/01 00:11:10;;;;;;;11.00;8.43;;;7.80;99.90;;;;;;5051114;28;20540;-68
2022/05/01 00:13:36;;;;;;;12.32;8.45;;;7.70;99.90;;;;;;5050572;28;20121;-68
2022/05/01 00:16:02;;;;;;;12.95;7.97;;;7.80;99.90;;;;;;5051575;28;20547;-68
2022/05/01 00:18:28;;;;;;;11.70;7.80;;;7.90;99.90;;;;;;5051713;28;20040;-68
2022/05/01 00:20:54;;;;;;;10.23;7.40;;;8.00;99.90;;;;;;5050711;28;20041;-68
2022/05/01 00:23:20;;;;;;;11.73;7.78;;;8.10;99.90;;;;;;5050912;28;20036;-68
2022/05/01 00:25:46;;;;;;;11.68;8.45;;;8.00;99.90;;;;;;5051874;28;20099;-68
2022/05/01 00:28:13;;;;;;;12.10;8.48;;;8.00;99.90;;;;;;5051792;28;20044;-68
2022/05/01 00:30:40;;;;;;;12.65;8.18;;;7.90;99.90;;;;;;5050610;28;20039;-68
2022/05/01 00:38:35;;;;;;;11.45;8.30;;;7.80;99.90;;;;;;5050647;28;20044;-68
2022/05/01 00:41:01;;;;;;;11.80;8.32;;;7.90;99.90;;;;;;5049382;28;20108;-68
2022/05/01 00:43:27;;;;;;;12.70;8.38;;;7.90;99.90;;;;;;5067168;28;20485;-68
2022/05/01 00:45:53;;;;;;;13.80;9.35;;;7.90;99.90;;;;;;5067986;28;20033;-68
2022/05/01 00:48:18;;;;;;;12.30;8.65;;;7.80;99.90;;;;;;5051243;28;20489;-68
2022/05/01 00:50:45;;;;;;;12.48;8.68;;;7.80;99.90;;;;;;5052461;28;20450;-69
2022/05/01 00:53:11;;;;;;;12.77;9.30;;;7.60;99.90;;;;;;5053964;28;20068;-68
2022/05/01 00:55:37;;;;;;;12.68;9.25;;;7.60;99.90;;;;;;5038648;28;20401;-68
2022/05/01 00:58:07;;;;;;;11.90;8.48;;;7.50;99.90;;;;;;5054894;28;20037;-68
2022/05/01 01:00:34;;;;;;;11.35;8.30;;;7.50;99.90;;;;;;5053401;28;20374;-69
2022/05/01 01:03:00;;;;;;;11.35;8.20;;;7.60;99.90;;;;;;5053737;28;20045;-69
2022/05/01 01:05:26;;;;;;;12.40;8.93;;;7.60;99.90;;;;;;5054847;28;20037;-68
2022/05/01 01:07:52;;;;;;;14.07;9.05;;;7.60;99.90;;;;;;5054737;28;20110;-68
2022/05/01 01:10:19;;;;;;;11.48;7.93;;;7.60;99.90;;;;;;5052739;28;20060;-68
2022/05/01 01:12:53;;;;;;;12.23;8.75;;;7.60;99.90;;;;;;5053803;28;20086;-68
2022/05/01 01:15:20;;;;;;;13.25;8.95;;;7.40;99.90;;;;;;5054642;28;20099;-69
2022/05/01 01:17:47;;;;;;;11.63;7.97;;;7.20;99.90;;;;;;5054640;28;20091;-68
2022/05/01 01:20:18;;;;;;;12.32;8.82;;;7.20;99.90;;;;;;5051358;28;20401;-69
2022/05/01 01:22:45;;;;;;;11.43;8.95;;;7.20;99.90;;;;;;5036963;28;20079;-68
2022/05/01 01:25:12;;;;;;;10.93;8.45;;;7.30;99.90;;;;;;5053954;28;20480;-68
2022/05/01 01:27:38;;;;;;;11.82;8.70;;;7.30;99.90;;;;;;5054490;28;20066;-68
2022/05/01 01:32:50;;;;;;;13.60;9.57;;;7.30;99.90;;;;;;5053495;28;20049;-69
2022/05/01 01:35:21;;;;;;;12.65;9.55;;;7.20;99.90;;;;;;5054085;28;20091;-68
2022/05/01 01:37:49;;;;;;;12.38;8.77;;;7.20;99.90;;;;;;5053310;28;20439;-68
2022/05/01 01:40:23;;;;;;;15.73;10.52;;;7.10;99.90;;;;;;5054250;28;20116;-68
2022/05/01 01:42:50;;;;;;;13.35;9.85;;;7.10;99.90;;;;;;5052028;28;20159;-68
2022/05/01 01:45:17;;;;;;;14.02;10.07;;;7.10;99.90;;;;;;5054018;28;20098;-68
2022/05/01 01:47:44;;;;;;;9.10;5.97;;;7.20;99.90;;;;;;5054029;28;20037;-68
2022/05/01 01:50:11;;;;;;;10.57;6.90;;;7.30;99.90;;;;;;5052899;28;20135;-68
2022/05/01 01:52:37;;;;;;;10.30;6.55;;;6.90;99.90;;;;;;5052953;28;20048;-69
2022/05/01 01:55:04;;;;;;;9.82;7.25;;;6.80;99.90;;;;;;5053932;28;20044;-68
2022/05/01 01:57:29;;;;;;;12.48;8.48;;;6.80;99.90;;;;;;5037126;28;20041;-68
2022/05/01 01:59:55;;;;;;;12.88;8.88;;;6.80;99.90;;;;;;5036570;28;20095;-68
2022/05/01 02:02:21;;;;;;;11.80;8.65;;;6.80;99.90;;;;;;5052496;28;20060;-69
2022/05/01 02:04:46;;;;;;;12.35;8.55;;;6.70;99.90;;;;;;5053771;28;20049;-68
2022/05/01 02:07:12;;;;;;;12.50;9.00;;;6.60;99.90;;;;;;5069365;28;20044;-68
2022/05/01 02:09:38;;;;;;;13.25;9.60;;;6.60;99.90;;;;;;5053699;28;20580;-68
2022/05/01 02:12:08;;;;;;;11.90;8.75;;;6.50;99.90;;;;;;5053700;28;20056;-68
2022/05/01 02:14:34;;;;;;;11.10;8.68;;;6.50;99.90;;;;;;5052661;28;20053;-68
2022/05/01 02:17:02;;;;;;;12.07;8.90;;;6.50;99.90;;;;;;5053637;28;20044;-68
2022/05/01 02:19:28;;;;;;;13.18;9.57;;;6.50;99.90;;;;;;5052765;28;20041;-68
2022/05/01 02:21:54;;;;;;;12.75;9.60;;;6.50;99.90;;;;;;5036764;28;20037;-68
2022/05/01 02:24:20;;;;;;;13.98;10.30;;;6.50;99.90;;;;;;5052331;28;20075;-68
2022/05/01 02:26:46;;;;;;;14.93;10.55;;;6.30;99.90;;;;;;5051899;28;20086;-68
2022/05/01 02:29:12;;;;;;;14.52;10.50;;;6.30;99.90;;;;;;5053304;28;20045;-68
2022/05/01 02:31:42;;;;;;;13.52;10.45;;;6.30;99.90;;;;;;5053308;28;20045;-69
2022/05/01 02:34:09;;;;;;;14.98;11.25;;;6.20;99.90;;;;;;5051947;28;20057;-69
2022/05/01 02:36:34;;;;;;;14.93;11.38;;;6.20;99.90;;;;;;5036490;28;20049;-68
2022/05/01 02:39:00;;;;;;;14.45;11.13;;;6.30;99.90;;;;;;5052889;28;20473;-68
2022/05/01 02:41:28;;;;;;;19.02;11.95;;;6.20;99.90;;;;;;5051479;28;20072;-68
2022/05/01 02:43:54;;;;;;;16.45;11.35;;;6.10;99.90;;;;;;5052010;28;20036;-68
2022/05/01 02:46:19;;;;;;;16.73;11.50;;;6.00;99.90;;;;;;5052904;28;20052;-68
2022/05/01 02:48:45;;;;;;;14.93;10.98;;;6.10;99.90;;;;;;5052906;28;20040;-68
2022/05/01 02:51:11;;;;;;;13.68;10.10;;;6.10;99.90;;;;;;5035412;28;20547;-68
2022/05/01 02:53:38;;;;;;;14.05;10.10;;;6.20;99.90;;;;;;5035394;28;20044;-68
2022/05/01 02:56:04;;;;;;;13.68;9.38;;;6.30;99.90;;;;;;5036123;28;20131;-68
2022/05/01 02:58:30;;;;;;;12.60;9.23;;;6.30;99.90;;;;;;5052916;28;20440;-68
2022/05/01 03:00:56;;;;;;;12.82;9.20;;;6.20;99.90;;;;;;5051883;28;20036;-68
2022/05/01 03:03:22;;;;;;;14.52;9.35;;;6.10;99.90;;;;;;5051692;28;20059;-68
2022/05/01 03:05:48;;;;;;;12.70;9.52;;;6.00;99.90;;;;;;5052609;28;20132;-68
2022/05/01 03:08:14;;;;;;;14.90;8.63;;;6.00;99.90;;;;;;5052461;28;20127;-68
2022/05/01 03:10:40;;;;;;;12.00;8.52;;;6.10;99.90;;;;;;5051722;28;20045;-68
2022/05/01 03:13:06;;;;;;;12.43;8.88;;;6.10;99.90;;;;;;5034750;28;20037;-68
2022/05/01 03:15:31;;;;;;;14.77;10.55;;;6.00;99.90;;;;;;5051988;28;20404;-68
2022/05/01 03:23:25;;;;;;;15.30;10.50;;;5.50;99.90;;;;;;5051345;28;20041;-68
2022/05/01 03:25:50;;;;;;;14.13;10.77;;;5.40;99.90;;;;;;5052356;28;20090;-68
2022/05/01 03:28:16;;;;;;;14.43;10.50;;;5.40;99.90;;;;;;5051196;28;20044;-68
2022/05/01 03:30:42;;;;;;;14.45;10.77;;;5.30;99.90;;;;;;5051213;28;20065;-68
2022/05/01 03:33:07;;;;;;;14.48;9.98;;;5.30;99.90;;;;;;5052180;28;20033;-68
2022/05/01 03:35:36;;;;;;;12.25;9.20;;;5.30;99.90;;;;;;5051980;28;20104;-68
2022/05/01 03:38:04;;;;;;;13.95;9.48;;;5.40;99.90;;;;;;5051838;28;20048;-68
2022/05/01 03:40:30;;;;;;;13.23;9.57;;;5.50;99.90;;;;;;5050449;28;20443;-68
2022/05/01 03:42:55;;;;;;;12.45;8.98;;;5.60;99.90;;;;;;5052027;28;20037;-68
2022/05/01 03:45:21;;;;;;;14.02;9.52;;;5.40;99.90;;;;;;5050821;28;20043;-68
2022/05/01 03:47:46;;;;;;;13.25;9.45;;;5.20;99.90;;;;;;5068601;28;20493;-68
2022/05/01 03:50:12;;;;;;;12.70;9.75;;;5.10;99.90;;;;;;5051034;28;20489;-68
2022/05/01 03:52:38;;;;;;;14.02;10.40;;;5.00;99.90;;;;;;5052169;28;20519;-68
2022/05/01 03:55:04;;;;;;;12.93;9.43;;;4.90;99.90;;;;;;5034377;28;20052;-68
2022/05/01 03:57:32;;;;;;;14.10;10.13;;;4.90;99.90;;;;;;5051776;28;20126;-68
2022/05/01 03:59:58;;;;;;;14.35;9.95;;;5.00;99.90;;;;;;5067824;28;20459;-68
2022/05/01 04:02:23;;;;;;;15.35;9.88;;;5.10;99.90;;;;;;5051786;28;20037;-68
2022/05/01 04:04:51;;;;;;;13.75;9.93;;;5.10;99.90;;;;;;5034289;28;20059;-68
2022/05/01 04:07:17;;;;;;;14.52;9.93;;;5.30;99.90;;;;;;5068545;28;20041;-68
2022/05/01 04:09:43;;;;;;;13.75;10.18;;;5.20;99.90;;;;;;5050635;28;20439;-68
2022/05/01 04:12:08;;;;;;;14.98;10.60;;;5.20;99.90;;;;;;5050275;28;20037;-68
2022/05/01 04:14:34;;;;;;;15.95;11.18;;;5.10;99.90;;;;;;5035004;28;20481;-68
2022/05/01 04:17:00;;;;;;;14.80;11.40;;;5.10;99.90;;;;;;5051580;28;20041;-68
2022/05/01 04:19:29;;;;;;;14.25;10.45;;;5.00;99.90;;;;;;5034249;28;20029;-68
2022/05/01 04:21:55;;;;;;;14.57;10.73;;;5.00;99.90;;;;;;5051766;28;20044;-68
2022/05/01 04:24:21;;;;;;;17.42;11.27;;;5.00;99.90;;;;;;5050841;28;21897;-68
2022/05/01 04:26:47;;;;;;;15.77;10.57;;;5.00;99.90;;;;;;5055385;28;20080;-68
2022/05/01 04:31:56;;;;;;;12.23;9.05;;;5.10;99.90;;;;;;5055833;28;20500;-68
2022/05/01 04:34:22;;;;;;;11.93;8.63;;;5.20;99.90;;;;;;5054547;28;20099;-68
2022/05/01 04:36:48;;;;;;;11.75;8.60;;;5.30;99.90;;;;;;5038740;28;20091;-68
2022/05/01 04:39:13;;;;;;;12.20;8.20;;;5.20;99.90;;;;;;5038014;28;20067;-68
2022/05/01 04:41:39;;;;;;;11.40;8.40;;;5.20;99.90;;;;;;5055216;28;20047;-68
2022/05/01 04:44:04;;;;;;;10.82;7.93;;;5.20;99.90;;;;;;5071389;28;20041;-68
2022/05/01 04:46:30;;;;;;;11.10;7.82;;;5.20;99.90;;;;;;5055183;28;20040;-68
2022/05/01 04:48:56;;;;;;;10.00;7.22;;;5.10;99.90;;;;;;5054115;28;20089;-68
2022/05/01 04:51:22;;;;;;;10.65;7.93;;;5.00;99.90;;;;;;5055378;28;20393;-68
2022/05/01 04:53:47;;;;;;;10.65;7.40;;;5.00;99.90;;;;;;5055424;28;20044;-68
2022/05/01 04:58:57;;;;;;;11.13;8.27;;;4.90;99.90;;;;;;5054172;28;21923;-68
2022/05/01 05:01:23;;;;;;;11.43;7.75;;;4.90;99.90;;;;;;5071616;28;20041;-68
2022/05/01 05:03:49;;;;;;;11.38;8.60;;;4.80;99.90;;;;;;5054893;28;20048;-68
2022/05/01 05:06:15;;;;;;;13.40;8.60;;;4.70;99.90;;;;;;5053833;28;20037;-68
2022/05/01 05:11:25;;;;;;;12.45;8.73;;;4.70;99.90;;;;;;5035006;28;20120;-68
2022/05/01 05:13:52;;;;;;;11.93;8.82;;;4.80;99.90;;;;;;5034878;28;20534;-68
2022/05/01 05:16:18;;;;;;;12.13;9.25;;;4.80;99.90;;;;;;5036158;28;20052;-68
2022/05/01 05:18:44;;;;;;;14.88;9.75;;;4.80;99.90;;;;;;5037501;28;20481;-68
2022/05/01 05:21:09;;;;;;;13.45;9.20;;;4.80;99.90;;;;;;5071164;28;20036;-68
2022/05/01 05:23:35;;;;;;;11.75;8.57;;;4.90;99.90;;;;;;5071282;28;20557;-68
2022/05/01 05:26:00;;;;;;;11.55;8.93;;;5.10;99.90;;;;;;5048896;28;20401;-68
2022/05/01 05:28:26;;;;;;;12.27;8.77;;;5.10;99.90;;;;;;5053635;28;20071;-68
2022/05/01 05:30:52;;;;;;;12.40;9.18;;;5.10;99.90;;;;;;5036646;28;20507;-68
2022/05/01 05:33:18;;;;;;;11.32;8.95;;;5.20;99.90;;;;;;5048065;28;20135;-68
2022/05/01 05:35:44;;;;;;;12.43;9.63;;;5.30;99.90;;;;;;5052410;28;20048;-68
2022/05/01 05:38:10;;;;;;;12.18;9.30;;;5.30;99.90;;;;;;5060520;28;20081;-68
2022/05/01 05:40:36;;;;;;;12.00;10.43;;;5.40;99.90;;;;;;5053003;28;20442;-68
2022/05/01 05:43:02;;;;;;;12.68;10.32;;;5.40;99.90;;;;;;5054181;28;20067;-68
2022/05/01 05:45:27;;;;;;;14.98;11.90;;;5.60;99.90;;;;;;5054460;28;20486;-68
2022/05/01 05:47:53;;;;;;;16.05;12.73;;;5.60;99.90;;;;;;5069784;28;20067;-68
2022/05/01 05:50:19;;;;;;;15.55;11.73;;;5.70;99.90;;;;;;5073978;28;20070;-68
2022/05/01 05:52:44;;;;;;;13.93;11.65;;;5.80;99.90;;;;;;5073028;28;20044;-68
2022/05/01 05:55:10;;;;;;;15.15;12.48;;;5.90;99.90;;;;;;5053292;28;20512;-68
2022/05/01 05:57:36;;;;;;;15.20;12.30;;;6.00;99.90;;;;;;5035419;28;20393;-68
2022/05/01 06:00:03;;;;;;;16.88;13.25;;;6.10;99.90;;;;;;5053622;28;20447;-68
2022/05/01 06:02:28;;;;;;;17.98;14.05;;;6.20;99.90;;;;;;5067720;28;20086;-67
2022/05/01 06:04:54;;;;;;;18.27;14.18;;;6.30;99.90;;;;;;5035532;28;20127;-67
2022/05/01 06:07:19;;;;;;;18.33;14.40;;;6.40;99.90;;;;;;5051916;28;20041;-67
2022/05/01 06:09:45;;;;;;;19.88;14.82;;;6.40;99.90;;;;;;5053560;28;20171;-67
2022/05/01 06:12:10;;;;;;;19.17;14.88;;;6.50;99.90;;;;;;5052740;28;20052;-68
2022/05/01 06:14:36;;;;;;;19.10;15.02;;;6.70;99.90;;;;;;5055285;28;20037;-67
2022/05/01 06:17:01;;;;;;;19.85;15.13;;;6.70;99.90;;;;;;5056761;28;20124;-67
2022/05/01 06:19:27;;;;;;;20.27;15.73;;;6.90;99.90;;;;;;5053481;28;20047;-67
2022/05/01 06:21:52;;;;;;;20.67;15.65;;;7.10;99.90;;;;;;5051895;28;20060;-67
2022/05/01 06:24:18;;;;;;;20.88;15.60;;;7.20;99.90;;;;;;5053446;28;20095;-67
2022/05/01 06:26:43;;;;;;;22.33;16.10;;;7.30;99.90;;;;;;5032531;28;20044;-67
2022/05/01 06:29:09;;;;;;;20.10;16.02;;;7.40;99.90;;;;;;5035740;28;20149;-67
2022/05/01 06:31:39;;;;;;;20.13;14.63;;;7.50;99.90;;;;;;5050518;28;20032;-67
2022/05/01 06:34:04;;;;;;;22.05;16.02;;;7.60;99.90;;;;;;5023139;28;20060;-68
2022/05/01 06:36:30;;;;;;;19.42;14.60;;;7.80;99.90;;;;;;5040417;28;20462;-68
2022/05/01 06:38:56;;;;;;;19.77;12.68;;;7.90;99.90;;;;;;5024159;28;20037;-68
2022/05/01 06:41:22;;;;;;;18.65;12.68;;;8.10;99.90;;;;;;5039348;28;20079;-67
2022/05/01 06:43:47;;;;;;;16.92;13.48;;;8.20;99.90;;;;;;5044674;28;20049;-67
2022/05/01 06:46:13;;;;;;;16.23;12.48;;;8.30;99.90;;;;;;5046558;28;20408;-68
2022/05/01 06:48:39;;;;;;;17.33;12.75;;;8.40;99.90;;;;;;5050765;28;20029;-67
2022/05/01 06:51:04;;;;;;;15.38;11.50;;;8.50;99.90;;;;;;5042592;28;20502;-67
2022/05/01 06:53:30;;;;;;;14.45;11.57;;;8.70;99.90;;;;;;5052129;28;20037;-68
2022/05/01 06:55:56;;;;;;;12.65;9.35;;;8.80;99.90;;;;;;5048507;28;20052;-67
2022/05/01 06:58:22;;;;;;;14.98;10.00;;;8.90;99.90;;;;;;5051234;28;20083;-68
2022/05/01 07:00:49;;;;;;;13.95;9.70;;;9.00;99.90;;;;;;5032764;28;20071;-68
2022/05/01 07:03:14;;;;;;;14.48;8.70;;;9.10;99.90;;;;;;5034137;28;20064;-68
2022/05/01 07:05:40;;;;;;;12.70;7.80;;;9.20;99.90;;;;;;5071802;28;20061;-68
2022/05/01 07:08:06;;;;;;;10.40;6.07;;;9.30;99.90;;;;;;5066954;28;20044;-68
2022/05/01 07:10:31;;;;;;;10.40;6.60;;;9.30;99.90;;;;;;5052405;28;20048;-68
2022/05/01 07:12:57;;;;;;;9.32;6.20;;;9.40;99.90;;;;;;5051756;28;20152;-68
2022/05/01 07:15:22;;;;;;;10.90;7.75;;;9.60;99.90;;;;;;5051862;28;20045;-68
2022/05/01 07:17:48;;;;;;;13.20;7.47;;;9.70;99.90;;;;;;5052284;28;20045;-68
2022/05/01 07:20:13;;;;;;;8.88;5.55;;;9.80;99.90;;;;;;5050147;28;20037;-68
2022/05/01 07:22:39;;;;;;;10.60;6.40;;;9.90;99.90;;;;;;5054190;28;20033;-68
2022/05/01 07:25:05;;;;;;;9.73;6.00;;;9.90;99.90;;;;;;5047129;28;20037;-68
2022/05/01 07:27:31;;;;;;;10.30;6.20;;;10.10;99.90;;;;;;5053033;28;20036;-68
2022/05/01 07:29:56;;;;;;;8.93;5.40;;;10.10;99.90;;;;;;5050802;28;20045;-68
2022/05/01 07:32:22;;;;;;;9.65;5.10;;;10.20;99.90;;;;;;5065533;28;20036;-68
2022/05/01 07:34:47;;;;;;;10.40;5.93;;;10.30;99.90;;;;;;5052167;28;20065;-68
2022/05/01 07:37:16;;;;;;;10.50;5.75;;;10.40;99.90;;;;;;5053428;28;20051;-68
2022/05/01 07:39:42;;;;;;;8.88;5.18;;;10.40;99.90;;;;;;5050622;28;20092;-68
2022/05/01 07:42:08;;;;;;;11.38;6.72;;;10.50;99.90;;;;;;5047499;28;20166;-68
2022/05/01 07:44:34;;;;;;;12.23;6.22;;;10.60;99.90;;;;;;5044630;28;20148;-68
2022/05/01 07:46:59;;;;;;;7.43;4.25;;;10.50;99.90;;;;;;5050876;28;20124;-68
2022/05/01 07:49:25;;;;;;;10.50;4.75;;;10.70;99.90;;;;;;5049512;28;20036;-68
2022/05/01 07:51:51;;;;;;;9.23;5.40;;;10.80;99.90;;;;;;5049084;28;20390;-68
2022/05/01 07:54:16;;;;;;;10.85;6.28;;;10.70;99.90;;;;;;5051002;28;20041;-68
2022/05/01 07:56:42;;;;;;;10.07;5.85;;;10.50;99.90;;;;;;5072030;28;20041;-68
2022/05/01 07:59:08;;;;;;;11.45;6.93;;;10.40;99.90;;;;;;5043055;28;20049;-68
2022/05/01 08:01:34;;;;;;;8.68;4.78;;;10.30;99.90;;;;;;5049907;28;20041;-68
2022/05/01 08:06:44;;;;;;;9.55;5.72;;;10.40;99.90;;;;;;5050380;28;20076;-68
2022/05/01 08:09:10;;;;;;;8.07;5.70;;;10.50;99.90;;;;;;5037024;28;20433;-68
2022/05/01 08:11:36;;;;;;;9.85;5.25;;;10.50;99.90;;;;;;5050431;28;20102;-68
2022/05/01 08:14:03;;;;;;;10.45;5.82;;;10.40;99.90;;;;;;5050099;28;20048;-68
2022/05/01 08:16:29;;;;;;;9.60;4.88;;;10.60;99.90;;;;;;5026083;28;20090;-68
2022/05/01 08:21:38;;;;;;;7.95;5.03;;;10.50;99.90;;;;;;5051285;28;20435;-68
2022/05/01 08:24:04;;;;;;;9.75;5.03;;;10.40;99.90;;;;;;5051373;28;20056;-68
2022/05/01 08:26:33;;;;;;;8.13;4.68;;;10.50;99.90;;;;;;5051730;28;20041;-68
2022/05/01 08:28:59;;;;;;;8.75;4.75;;;10.70;99.90;;;;;;5066739;28;20436;-68
2022/05/01 08:31:25;;;;;;;9.95;5.07;;;10.80;99.90;;;;;;5063495;28;20091;-69
2022/05/01 08:33:51;;;;;;;9.27;4.88;;;11.00;99.90;;;;;;5047649;28;20036;-69
2022/05/01 08:36:16;;;;;;;8.77;5.18;;;11.20;99.90;;;;;;5051345;28;20056;-68
2022/05/01 08:38:42;;;;;;;9.32;4.80;;;11.20;99.90;;;;;;5033962;28;20044;-68
2022/05/01 08:41:09;;;;;;;8.55;5.45;;;11.20;99.90;;;;;;5033535;28;20044;-68
2022/05/01 08:43:36;;;;;;;7.68;4.85;;;11.30;99.90;;;;;;5049349;28;20040;-69
2022/05/01 08:46:35;;;;;;;9.75;4.60;;;11.50;99.90;;;;;;5034085;28;20040;-69
2022/05/01 08:49:06;;;;;;;7.57;4.35;;;11.50;99.90;;;;;;5035396;28;20040;-68
2022/05/01 08:51:37;;;;;;;6.95;4.10;;;11.60;99.90;;;;;;5052030;28;20033;-68
2022/05/01 08:54:05;;;;;;;8.27;4.22;;;11.60;99.90;;;;;;5033534;28;20048;-69
2022/05/01 08:56:35;;;;;;;7.63;4.13;;;11.60;99.90;;;;;;5051835;28;20052;-69
2022/05/01 08:59:04;;;;;;;7.45;4.75;;;11.60;99.90;;;;;;5050936;28;20482;-69
2022/05/01 09:01:31;;;;;;;7.65;4.25;;;11.50;99.90;;;;;;5049738;28;20453;-69
2022/05/01 09:03:57;;;;;;;7.88;3.90;;;11.60;99.90;;;;;;5051668;28;20041;-68
2022/05/01 09:06:23;;;;;;;8.85;3.85;;;11.40;99.90;;;;;;5031840;28;20167;-68
2022/05/01 09:08:51;;;;;;;8.48;3.95;;;11.40;99.90;;;;;;5050635;28;20060;-68
2022/05/01 09:14:02;;;;;;;7.53;4.15;;;11.40;99.90;;;;;;5053754;28;20049;-69
2022/05/01 09:16:28;;;;;;;8.32;4.43;;;11.30;99.90;;;;;;5053275;28;20044;-69
2022/05/01 09:18:54;;;;;;;8.27;4.40;;;11.50;99.90;;;;;;5054016;28;20040;-69
2022/05/01 09:21:19;;;;;;;8.70;4.07;;;11.70;99.90;;;;;;5051001;28;20045;-69
2022/05/01 09:23:48;;;;;;;6.90;4.15;;;12.00;99.90;;;;;;5024097;28;20494;-69
2022/05/01 09:26:15;;;;;;;10.25;4.60;;;12.00;99.90;;;;;;5052997;28;20041;-69
2022/05/01 09:28:51;;;;;;;8.68;4.18;;;12.10;99.90;;;;;;5044730;28;20037;-69
2022/05/01 09:31:18;;;;;;;9.80;4.15;;;12.20;99.90;;;;;;5050824;28;20398;-69
2022/05/01 09:33:44;;;;;;;8.38;4.30;;;12.30;99.90;;;;;;5036190;28;20040;-69
2022/05/01 09:36:33;;;;;;;7.57;4.13;;;12.40;99.90;;;;;;5051008;28;20044;-69
2022/05/01 09:39:03;;;;;;;7.43;4.05;;;12.20;99.90;;;;;;5036310;28;20049;-69
2022/05/01 09:41:29;;;;;;;9.20;4.30;;;12.30;99.90;;;;;;5052363;28;20037;-69
2022/05/01 09:43:54;;;;;;;7.15;3.78;;;12.50;99.90;;;;;;5036877;28;20043;-69
2022/05/01 09:46:25;;;;;;;7.07;3.88;;;12.50;99.90;;;;;;5053019;28;20072;-69
2022/05/01 09:49:05;;;;;;;7.45;3.78;;;12.50;99.80;;;;;;5053012;28;20095;-69
2022/05/01 09:51:36;;;;;;;6.88;4.10;;;12.50;99.10;;;;;;5070029;28;20043;-69
2022/05/01 09:54:04;;;;;;;7.63;3.70;;;12.50;99.00;;;;;;5038957;28;20115;-69
2022/05/01 09:56:43;;;;;;;8.52;3.88;;;12.40;99.10;;;;;;5036434;28;20065;-69
2022/05/01 09:59:09;;;;;;;9.95;4.10;;;12.40;99.90;;;;;;5053806;28;20033;-69
2022/05/01 10:01:35;;;;;;;8.77;4.32;;;12.50;99.50;;;;;;5054766;28;20040;-69
2022/05/01 10:04:02;;;;;;;6.95;4.00;;;12.50;99.90;;;;;;5054592;28;20480;-69
2022/05/01 10:06:30;;;;;;;9.48;4.30;;;12.40;99.70;;;;;;5052677;28;20075;-69
2022/05/01 10:08:55;;;;;;;8.38;4.40;;;12.30;99.80;;;;;;5041180;28;20355;-69
2022/05/01 10:11:24;;;;;;;10.18;4.13;;;12.40;96.50;;;;;;5069849;28;20040;-69
2022/05/01 10:13:50;;;;;;;8.13;4.05;;;12.60;99.80;;;;;;5052477;28;20558;-69
2022/05/01 10:16:16;;;;;;;7.55;3.80;;;12.70;99.70;;;;;;5053293;28;20087;-69
2022/05/01 10:18:44;;;;;;;8.90;3.78;;;12.60;96.40;;;;;;5052571;28;20031;-69
2022/05/01 10:21:10;;;;;;;7.75;4.05;;;12.30;89.50;;;;;;5037731;28;20040;-69
2022/05/01 10:23:36;;;;;;;7.55;4.13;;;12.50;96.70;;;;;;5052810;28;20489;-69
2022/05/01 10:26:23;;;;;;;6.72;3.45;;;12.70;99.70;;;;;;5054679;28;20439;-69
2022/05/01 10:29:02;;;;;;;7.20;3.63;;;12.90;97.00;;;;;;5054447;28;20124;-69
2022/05/01 10:35:12;;;;;;;7.78;3.25;;;12.80;95.90;;;;;;5055614;28;20128;-68
2022/05/01 10:38:20;;;;;;;8.55;4.03;;;12.90;96.20;;;;;;5044708;28;20049;-69
2022/05/01 10:40:51;;;;;;;8.30;3.75;;;12.90;95.20;;;;;;5051670;28;20033;-69
2022/05/01 10:43:36;;;;;;;8.10;3.75;;;12.90;96.90;;;;;;5051477;28;20040;-68
2022/05/01 10:46:20;;;;;;;7.00;3.85;;;13.00;95.80;;;;;;5037362;28;20033;-68
2022/05/01 10:48:46;;;;;;;8.65;4.38;;;12.90;96.00;;;;;;5037256;28;20104;-68
2022/05/01 10:51:30;;;;;;;8.30;4.05;;;12.80;96.20;;;;;;5047014;28;20033;-68
2022/05/01 10:54:13;;;;;;;6.50;3.40;;;12.90;96.90;;;;;;5051320;28;20485;-68
2022/05/01 10:56:51;;;;;;;7.35;3.72;;;12.90;94.90;;;;;;5051285;28;20512;-68
2022/05/01 10:59:34;;;;;;;6.05;3.30;;;12.80;95.80;;;;;;5051692;28;20040;-68
2022/05/01 11:02:03;;;;;;;6.93;3.20;;;12.90;94.60;;;;;;5068288;28;20099;-68
2022/05/01 11:04:36;;;;;;;8.68;3.63;;;13.00;94.10;;;;;;5053846;28;20044;-68
2022/05/01 11:07:04;;;;;;;7.30;3.55;;;13.00;92.70;;;;;;5034016;28;20131;-68
2022/05/01 11:09:34;;;;;;;7.82;4.03;;;12.90;96.20;;;;;;5068158;28;20053;-68
2022/05/01 11:12:01;;;;;;;8.70;4.15;;;12.80;96.00;;;;;;5053205;28;20037;-68
2022/05/01 11:14:41;;;;;;;6.82;3.38;;;12.80;96.00;;;;;;5053470;28;20123;-68
2022/05/01 11:17:12;;;;;;;6.20;3.67;;;12.90;95.60;;;;;;5050423;28;20064;-68
2022/05/01 11:19:45;;;;;;;7.45;3.35;;;12.90;94.70;;;;;;5051066;28;20045;-68
2022/05/01 11:22:12;;;;;;;7.28;3.80;;;12.80;94.30;;;;;;5044960;28;20033;-68
2022/05/01 11:24:45;;;;;;;8.98;3.40;;;12.90;96.90;;;;;;5050757;28;20041;-68
2022/05/01 11:27:11;;;;;;;8.07;3.90;;;13.10;97.50;;;;;;5049943;28;20041;-68
2022/05/01 11:29:37;;;;;;;6.93;3.65;;;13.10;96.60;;;;;;5049553;28;20083;-68
2022/05/01 11:32:19;;;;;;;7.45;3.75;;;13.10;97.40;;;;;;5069984;28;20079;-68
2022/05/01 11:34:50;;;;;;;;;;;13.00;94.60;;;;;;5050207;28;20057;-68
2022/05/01 11:37:15;;;;;;;7.88;3.70;;;13.00;95.00;;;;;;5051389;28;20000;-68
2022/05/01 11:39:50;;;;;;;6.68;3.75;;;13.10;95.00;;;;;;5037599;28;20112;-68
2022/05/01 11:42:24;;;;;;;6.75;3.95;;;13.00;92.30;;;;;;5047911;28;20041;-68
2022/05/01 11:44:50;;;;;;;5.90;3.45;;;13.00;93.50;;;;;;5050408;28;20037;-68
2022/05/01 11:47:20;;;;;;;7.82;4.15;;;13.00;95.50;;;;;;5050346;28;20047;-68
2022/05/01 11:49:46;;;;;;;6.72;3.58;;;13.00;95.50;;;;;;5052986;28;20041;-68
2022/05/01 11:52:16;;;;;;;7.30;4.15;;;13.10;95.80;;;;;;5052921;28;20159;-68
2022/05/01 11:54:50;;;;;;;8.60;3.90;;;13.10;94.80;;;;;;5035458;28;20405;-68
2022/05/01 12:03:00;;;;;;;8.02;4.07;;;13.20;95.00;;;;;;5051698;28;20045;-68
2022/05/01 12:05:31;;;;;;;7.65;4.18;;;13.00;91.30;;;;;;5051515;28;20447;-68
2022/05/01 12:07:57;;;;;;;8.75;4.07;;;12.90;92.90;;;;;;5049713;28;20043;-68
2022/05/01 12:10:23;;;;;;;8.30;3.92;;;12.90;91.30;;;;;;5050938;28;20037;-68
2022/05/01 12:12:49;;;;;;;6.20;3.40;;;12.80;90.70;;;;;;5029730;28;20103;-68
2022/05/01 12:15:15;;;;;;;7.18;3.50;;;13.00;94.20;;;;;;5045248;28;20037;-68
2022/05/01 12:17:42;;;;;;;6.93;3.45;;;13.00;94.60;;;;;;5048439;28;20041;-68
2022/05/01 12:20:08;;;;;;;7.55;3.80;;;13.10;95.10;;;;;;5049207;28;20064;-68
2022/05/01 12:22:40;;;;;;;7.93;4.18;;;13.10;94.40;;;;;;5066231;28;20515;-68
2022/05/01 12:25:11;;;;;;;6.10;3.67;;;13.10;95.40;;;;;;5049801;28;20112;-68
2022/05/01 12:27:41;;;;;;;7.03;3.58;;;13.10;93.30;;;;;;5053760;28;20505;-68
2022/05/01 12:30:09;;;;;;;9.40;3.70;;;13.10;90.90;;;;;;5057575;28;20045;-68
2022/05/01 12:32:37;;;;;;;6.65;3.40;;;13.10;93.10;;;;;;5051000;28;20096;-68
2022/05/01 12:35:06;;;;;;;7.28;4.25;;;13.30;91.40;;;;;;5034304;28;20053;-68
2022/05/01 12:37:34;;;;;;;7.80;3.60;;;13.40;91.90;;;;;;5034689;28;20048;-68
2022/05/01 12:40:03;;;;;;;6.60;3.78;;;13.50;91.00;;;;;;5034332;28;20080;-69
2022/05/01 12:45:17;;;;;;;7.35;3.67;;;13.60;89.60;;;;;;5051112;28;20095;-68
2022/05/01 12:48:00;;;;;;;7.32;3.42;;;13.50;91.30;;;;;;5042748;28;20048;-68
2022/05/01 12:50:27;;;;;;;9.20;3.95;;;13.40;91.50;;;;;;5055408;28;20050;-68
2022/05/01 12:52:59;;;;;;;6.72;3.40;;;13.20;93.10;;;;;;5038228;28;20076;-68
2022/05/01 12:55:30;;;;;;;6.25;3.65;;;13.30;93.80;;;;;;5054986;28;20055;-68
2022/05/01 12:58:00;;;;;;;7.72;3.72;;;13.20;93.50;;;;;;5071040;28;20088;-68
2022/05/01 13:00:44;;;;;;;7.15;3.63;;;13.30;89.00;;;;;;5037801;28;20512;-68
2022/05/01 13:03:30;;;;;;;6.90;3.90;;;13.30;93.10;;;;;;5036229;28;20040;-68
2022/05/01 13:06:13;;;;;;;7.43;3.55;;;13.30;91.80;;;;;;5034315;28;20073;-68
2022/05/01 13:08:46;;;;;;;8.50;3.60;;;13.40;91.70;;;;;;5042043;28;20041;-68
2022/05/01 13:11:28;;;;;;;5.72;3.35;;;13.50;90.80;;;;;;5051881;28;20040;-69
2022/05/01 13:14:01;;;;;;;6.05;3.22;;;13.60;90.90;;;;;;5053481;28;20520;-69
2022/05/01 13:16:32;;;;;;;7.53;3.30;;;13.40;91.90;;;;;;5052679;28;20098;-69
2022/05/01 13:19:09;;;;;;;7.70;3.42;;;13.40;93.50;;;;;;5039843;28;20036;-69
2022/05/01 13:21:43;;;;;;;7.00;3.80;;;13.60;95.00;;;;;;5048948;28;20037;-69
2022/05/01 13:24:16;;;;;;;7.25;3.83;;;13.70;93.70;;;;;;5054638;28;20374;-69
2022/05/01 13:26:42;;;;;;;7.13;3.45;;;13.60;84.80;;;;;;5037339;28;20080;-69
2022/05/01 13:29:10;;;;;;;7.35;3.60;;;13.60;90.40;;;;;;5036682;28;20045;-69
2022/05/01 13:31:37;;;;;;;6.63;3.55;;;13.80;91.00;;;;;;5069260;28;20505;-69